sensor_id;sensor_type;location;lat;lon;timestamp;P1;P2;P0
70915;PMS5003;58557;50.982;-3.222;2022-12-07T00:02:03;34;32;
70915;PMS5003;58557;50.982;-3.222;2022-12-07T00:04:28;26;22;
70915;PMS5003;58557;50.982;-3.222;2022-12-07T00:06:54;36;29;
70915;PMS5003;58557;50.982;-3.222;2022-12-07T00:09:19;31;26;
70915;PMS5003;58557;50.982;-3.222;2022-12-07T00:11:48;34;28;
70915;PMS5003;58557;50.982;-3.222;2022-12-07T00:14:10;42;34;
70915;PMS5003;58557;50.982;-3.222;2022-12-07T00:16:35;26;24;
70915;PMS5003;58557;50.982;-3.222;2022-12-07T00:19:01;34;31;
70915;PMS5003;58557;50.982;-3.222;2022-12-07T00:21:27;37;29;
70915;PMS5003;58557;50.982;-3.222;2022-12-07T00:23:51;39;36;
70915;PMS5003;58557;50.982;-3.222;2022-12-07T00:26:18;29;28;
70915;PMS5003;58557;50.982;-3.222;2022-12-07T00:28:44;39;36;
70915;PMS5003;58557;50.982;-3.222;2022-12-07T00:31:08;34;33;
70915;PMS5003;58557;50.982;-3.222;2022-12-07T00:33:33;34;33;
70915;PMS5003;58557;50.982;-3.222;2022-12-07T00:35:58;42;36;
70915;PMS5003;58557;50.982;-3.222;2022-12-07T00:38:24;31;28;
70915;PMS5003;58557;50.982;-3.222;2022-12-07T00:40:53;36;34;
70915;PMS5003;58557;50.982;-3.222;2022-12-07T00:43:15;36;33;
70915;PMS5003;58557;50.982;-3.222;2022-12-07T00:45:41;36;34;
70915;PMS5003;58557;50.982;-3.222;2022-12-07T00:48:06;32;27;
70915;PMS5003;58557;50.982;-3.222;2022-12-07T00:50:32;32;31;
70915;PMS5003;58557;50.982;-3.222;2022-12-07T00:52:57;34;27;
70915;PMS5003;58557;50.982;-3.222;2022-12-07T00:55:23;32;28;
70915;PMS5003;58557;50.982;-3.222;2022-12-07T00:57:48;41;28;
70915;PMS5003;58557;50.982;-3.222;2022-12-07T01:00:13;38;36;
70915;PMS5003;58557;50.982;-3.222;2022-12-07T01:02:39;37;33;
70915;PMS5003;58557;50.982;-3.222;2022-12-07T01:05:04;39;37;
70915;PMS5003;58557;50.982;-3.222;2022-12-07T01:07:30;38;34;
70915;PMS5003;58557;50.982;-3.222;2022-12-07T01:09:55;34;31;
70915;PMS5003;58557;50.982;-3.222;2022-12-07T01:12:20;26;26;
70915;PMS5003;58557;50.982;-3.222;2022-12-07T01:14:46;38;37;
70915;PMS5003;58557;50.982;-3.222;2022-12-07T01:17:11;33;28;
70915;PMS5003;58557;50.982;-3.222;2022-12-07T01:19:36;41;38;
70915;PMS5003;58557;50.982;-3.222;2022-12-07T01:22:01;44;36;
70915;PMS5003;58557;50.982;-3.222;2022-12-07T01:24:27;36;32;
70915;PMS5003;58557;50.982;-3.222;2022-12-07T01:26:52;34;31;
70915;PMS5003;58557;50.982;-3.222;2022-12-07T01:29:17;38;36;
70915;PMS5003;58557;50.982;-3.222;2022-12-07T01:31:43;46;33;
70915;PMS5003;58557;50.982;-3.222;2022-12-07T01:34:08;31;29;
70915;PMS5003;58557;50.982;-3.222;2022-12-07T01:36:34;26;23;
70915;PMS5003;58557;50.982;-3.222;2022-12-07T01:39:00;24;23;
70915;PMS5003;58557;50.982;-3.222;2022-12-07T01:41:25;31;26;
70915;PMS5003;58557;50.982;-3.222;2022-12-07T01:46:15;29;24;
70915;PMS5003;58557;50.982;-3.222;2022-12-07T01:48:40;23;23;
70915;PMS5003;58557;50.982;-3.222;2022-12-07T01:51:08;28;26;
70915;PMS5003;58557;50.982;-3.222;2022-12-07T01:53:32;32;28;
70915;PMS5003;58557;50.982;-3.222;2022-12-07T01:55:57;29;24;
70915;PMS5003;58557;50.982;-3.222;2022-12-07T01:58:22;33;29;
70915;PMS5003;58557;50.982;-3.222;2022-12-07T02:00:48;28;27;
70915;PMS5003;58557;50.982;-3.222;2022-12-07T02:03:13;27;23;
70915;PMS5003;58557;50.982;-3.222;2022-12-07T02:05:38;23;19;
70915;PMS5003;58557;50.982;-3.222;2022-12-07T02:08:03;24;22;
70915;PMS5003;58557;50.982;-3.222;2022-12-07T02:10:29;26;26;
70915;PMS5003;58557;50.982;-3.222;2022-12-07T02:12:55;29;24;
70915;PMS5003;58557;50.982;-3.222;2022-12-07T02:15:19;29;25;
70915;PMS5003;58557;50.982;-3.222;2022-12-07T02:17:45;25;25;
70915;PMS5003;58557;50.982;-3.222;2022-12-07T02:20:13;28;26;
70915;PMS5003;58557;50.982;-3.222;2022-12-07T02:22:43;28;28;
70915;PMS5003;58557;50.982;-3.222;2022-12-07T02:25:04;32;23;
70915;PMS5003;58557;50.982;-3.222;2022-12-07T02:27:34;27;24;
70915;PMS5003;58557;50.982;-3.222;2022-12-07T02:29:54;27;26;
70915;PMS5003;58557;50.982;-3.222;2022-12-07T02:32:18;24;21;
70915;PMS5003;58557;50.982;-3.222;2022-12-07T02:34:44;28;24;
70915;PMS5003;58557;50.982;-3.222;2022-12-07T02:37:09;27;27;
70915;PMS5003;58557;50.982;-3.222;2022-12-07T02:39:33;32;31;
70915;PMS5003;58557;50.982;-3.222;2022-12-07T02:41:59;26;21;
70915;PMS5003;58557;50.982;-3.222;2022-12-07T02:44:24;22;22;
70915;PMS5003;58557;50.982;-3.222;2022-12-07T02:46:50;26;22;
70915;PMS5003;58557;50.982;-3.222;2022-12-07T02:49:14;31;26;
70915;PMS5003;58557;50.982;-3.222;2022-12-07T02:51:40;36;27;
70915;PMS5003;58557;50.982;-3.222;2022-12-07T02:54:07;22;22;
70915;PMS5003;58557;50.982;-3.222;2022-12-07T02:56:31;24;18;
70915;PMS5003;58557;50.982;-3.222;2022-12-07T02:58:58;21;18;
70915;PMS5003;58557;50.982;-3.222;2022-12-07T03:01:24;21;19;
70915;PMS5003;58557;50.982;-3.222;2022-12-07T03:03:48;19;18;
70915;PMS5003;58557;50.982;-3.222;2022-12-07T03:06:12;21;18;
70915;PMS5003;58557;50.982;-3.222;2022-12-07T03:08:38;22;19;
70915;PMS5003;58557;50.982;-3.222;2022-12-07T03:11:02;29;27;
70915;PMS5003;58557;50.982;-3.222;2022-12-07T03:13:28;27;23;
70915;PMS5003;58557;50.982;-3.222;2022-12-07T03:15:54;21;21;
70915;PMS5003;58557;50.982;-3.222;2022-12-07T03:18:18;21;19;
70915;PMS5003;58557;50.982;-3.222;2022-12-07T03:20:43;23;22;
70915;PMS5003;58557;50.982;-3.222;2022-12-07T03:23:08;23;21;
70915;PMS5003;58557;50.982;-3.222;2022-12-07T03:25:33;21;19;
70915;PMS5003;58557;50.982;-3.222;2022-12-07T03:28:00;27;22;
70915;PMS5003;58557;50.982;-3.222;2022-12-07T03:30:27;27;21;
70915;PMS5003;58557;50.982;-3.222;2022-12-07T03:32:52;26;23;
70915;PMS5003;58557;50.982;-3.222;2022-12-07T03:35:16;27;27;
70915;PMS5003;58557;50.982;-3.222;2022-12-07T03:37:43;27;23;
70915;PMS5003;58557;50.982;-3.222;2022-12-07T03:40:07;28;21;
70915;PMS5003;58557;50.982;-3.222;2022-12-07T03:42:32;19;18;
70915;PMS5003;58557;50.982;-3.222;2022-12-07T03:44:57;24;18;
70915;PMS5003;58557;50.982;-3.222;2022-12-07T03:47:24;23;18;
70915;PMS5003;58557;50.982;-3.222;2022-12-07T03:49:49;28;22;
70915;PMS5003;58557;50.982;-3.222;2022-12-07T03:52:16;22;21;
70915;PMS5003;58557;50.982;-3.222;2022-12-07T03:54:40;23;19;
70915;PMS5003;58557;50.982;-3.222;2022-12-07T03:57:05;31;26;
70915;PMS5003;58557;50.982;-3.222;2022-12-07T03:59:30;24;21;
70915;PMS5003;58557;50.982;-3.222;2022-12-07T04:01:56;21;17;
70915;PMS5003;58557;50.982;-3.222;2022-12-07T04:04:21;22;21;
70915;PMS5003;58557;50.982;-3.222;2022-12-07T04:06:46;23;22;
70915;PMS5003;58557;50.982;-3.222;2022-12-07T04:09:11;22;21;
70915;PMS5003;58557;50.982;-3.222;2022-12-07T04:11:37;22;20;
70915;PMS5003;58557;50.982;-3.222;2022-12-07T04:14:02;20;18;
70915;PMS5003;58557;50.982;-3.222;2022-12-07T04:16:27;25;20;
70915;PMS5003;58557;50.982;-3.222;2022-12-07T04:18:53;20;20;
70915;PMS5003;58557;50.982;-3.222;2022-12-07T04:21:18;21;17;
70915;PMS5003;58557;50.982;-3.222;2022-12-07T04:23:44;17;16;
70915;PMS5003;58557;50.982;-3.222;2022-12-07T04:26:09;21;18;
70915;PMS5003;58557;50.982;-3.222;2022-12-07T04:28:34;20;16;
70915;PMS5003;58557;50.982;-3.222;2022-12-07T04:31:00;25;20;
70915;PMS5003;58557;50.982;-3.222;2022-12-07T04:33:25;21;20;
70915;PMS5003;58557;50.982;-3.222;2022-12-07T04:35:50;26;21;
70915;PMS5003;58557;50.982;-3.222;2022-12-07T04:38:16;20;20;
70915;PMS5003;58557;50.982;-3.222;2022-12-07T04:40:42;18;17;
70915;PMS5003;58557;50.982;-3.222;2022-12-07T04:43:07;23;22;
70915;PMS5003;58557;50.982;-3.222;2022-12-07T04:45:33;26;25;
70915;PMS5003;58557;50.982;-3.222;2022-12-07T04:47:59;18;18;
70915;PMS5003;58557;50.982;-3.222;2022-12-07T04:50:24;25;24;
70915;PMS5003;58557;50.982;-3.222;2022-12-07T04:52:49;20;18;
70915;PMS5003;58557;50.982;-3.222;2022-12-07T04:55:15;22;21;
70915;PMS5003;58557;50.982;-3.222;2022-12-07T04:57:41;17;15;
70915;PMS5003;58557;50.982;-3.222;2022-12-07T05:00:07;21;21;
70915;PMS5003;58557;50.982;-3.222;2022-12-07T05:02:32;18;18;
70915;PMS5003;58557;50.982;-3.222;2022-12-07T05:04:57;23;20;
70915;PMS5003;58557;50.982;-3.222;2022-12-07T05:07:22;29;25;
70915;PMS5003;58557;50.982;-3.222;2022-12-07T05:09:48;25;24;
70915;PMS5003;58557;50.982;-3.222;2022-12-07T05:12:13;24;21;
70915;PMS5003;58557;50.982;-3.222;2022-12-07T05:14:38;27;20;
70915;PMS5003;58557;50.982;-3.222;2022-12-07T05:17:04;30;25;
70915;PMS5003;58557;50.982;-3.222;2022-12-07T05:19:29;22;19;
70915;PMS5003;58557;50.982;-3.222;2022-12-07T05:21:54;16;16;
70915;PMS5003;58557;50.982;-3.222;2022-12-07T05:24:20;22;20;
70915;PMS5003;58557;50.982;-3.222;2022-12-07T05:26:45;21;19;
70915;PMS5003;58557;50.982;-3.222;2022-12-07T05:29:11;20;19;
70915;PMS5003;58557;50.982;-3.222;2022-12-07T05:31:36;22;21;
70915;PMS5003;58557;50.982;-3.222;2022-12-07T05:34:01;27;22;
70915;PMS5003;58557;50.982;-3.222;2022-12-07T05:36:26;25;20;
70915;PMS5003;58557;50.982;-3.222;2022-12-07T05:38:52;31;29;
70915;PMS5003;58557;50.982;-3.222;2022-12-07T05:41:17;31;25;
70915;PMS5003;58557;50.982;-3.222;2022-12-07T05:43:42;33;26;
70915;PMS5003;58557;50.982;-3.222;2022-12-07T05:46:07;26;22;
70915;PMS5003;58557;50.982;-3.222;2022-12-07T05:48:32;26;25;
70915;PMS5003;58557;50.982;-3.222;2022-12-07T05:50:58;24;22;
70915;PMS5003;58557;50.982;-3.222;2022-12-07T05:53:24;25;22;
70915;PMS5003;58557;50.982;-3.222;2022-12-07T05:55:49;22;20;
70915;PMS5003;58557;50.982;-3.222;2022-12-07T05:58:14;30;27;
70915;PMS5003;58557;50.982;-3.222;2022-12-07T06:00:39;31;26;
70915;PMS5003;58557;50.982;-3.222;2022-12-07T06:03:05;22;22;
70915;PMS5003;58557;50.982;-3.222;2022-12-07T06:05:31;30;25;
70915;PMS5003;58557;50.982;-3.222;2022-12-07T06:07:56;31;26;
70915;PMS5003;58557;50.982;-3.222;2022-12-07T06:10:21;22;20;
70915;PMS5003;58557;50.982;-3.222;2022-12-07T06:12:46;24;21;
70915;PMS5003;58557;50.982;-3.222;2022-12-07T06:15:12;29;29;
70915;PMS5003;58557;50.982;-3.222;2022-12-07T06:17:37;19;19;
70915;PMS5003;58557;50.982;-3.222;2022-12-07T06:20:03;26;21;
70915;PMS5003;58557;50.982;-3.222;2022-12-07T06:22:28;30;21;
70915;PMS5003;58557;50.982;-3.222;2022-12-07T06:24:54;33;28;
70915;PMS5003;58557;50.982;-3.222;2022-12-07T06:27:19;30;29;
70915;PMS5003;58557;50.982;-3.222;2022-12-07T06:29:45;17;17;
70915;PMS5003;58557;50.982;-3.222;2022-12-07T06:32:11;20;20;
70915;PMS5003;58557;50.982;-3.222;2022-12-07T06:34:37;24;24;
70915;PMS5003;58557;50.982;-3.222;2022-12-07T06:37:02;21;17;
70915;PMS5003;58557;50.982;-3.222;2022-12-07T06:39:27;24;21;
70915;PMS5003;58557;50.982;-3.222;2022-12-07T06:41:53;30;26;
70915;PMS5003;58557;50.982;-3.222;2022-12-07T06:44:18;26;22;
70915;PMS5003;58557;50.982;-3.222;2022-12-07T06:46:43;22;21;
70915;PMS5003;58557;50.982;-3.222;2022-12-07T06:49:08;24;21;
70915;PMS5003;58557;50.982;-3.222;2022-12-07T06:51:34;33;30;
70915;PMS5003;58557;50.982;-3.222;2022-12-07T06:53:59;24;20;
70915;PMS5003;58557;50.982;-3.222;2022-12-07T06:56:25;26;24;
70915;PMS5003;58557;50.982;-3.222;2022-12-07T06:58:50;24;20;
70915;PMS5003;58557;50.982;-3.222;2022-12-07T07:01:17;28;26;
70915;PMS5003;58557;50.982;-3.222;2022-12-07T07:03:42;26;20;
70915;PMS5003;58557;50.982;-3.222;2022-12-07T07:06:07;31;25;
70915;PMS5003;58557;50.982;-3.222;2022-12-07T07:08:32;26;22;
70915;PMS5003;58557;50.982;-3.222;2022-12-07T07:10:58;33;29;
70915;PMS5003;58557;50.982;-3.222;2022-12-07T07:13:23;26;24;
70915;PMS5003;58557;50.982;-3.222;2022-12-07T07:15:48;24;21;
70915;PMS5003;58557;50.982;-3.222;2022-12-07T07:18:14;20;20;
70915;PMS5003;58557;50.982;-3.222;2022-12-07T07:20:39;31;28;
70915;PMS5003;58557;50.982;-3.222;2022-12-07T07:23:05;24;24;
70915;PMS5003;58557;50.982;-3.222;2022-12-07T07:25:30;34;29;
70915;PMS5003;58557;50.982;-3.222;2022-12-07T07:27:56;26;26;
70915;PMS5003;58557;50.982;-3.222;2022-12-07T07:30:21;30;25;
70915;PMS5003;58557;50.982;-3.222;2022-12-07T07:32:46;29;23;
70915;PMS5003;58557;50.982;-3.222;2022-12-07T07:35:12;26;22;
70915;PMS5003;58557;50.982;-3.222;2022-12-07T07:37:37;26;24;
70915;PMS5003;58557;50.982;-3.222;2022-12-07T07:40:04;25;22;
70915;PMS5003;58557;50.982;-3.222;2022-12-07T07:42:29;30;26;
70915;PMS5003;58557;50.982;-3.222;2022-12-07T07:44:54;21;21;
70915;PMS5003;58557;50.982;-3.222;2022-12-07T07:47:19;30;27;
70915;PMS5003;58557;50.982;-3.222;2022-12-07T07:49:44;26;22;
70915;PMS5003;58557;50.982;-3.222;2022-12-07T07:52:10;30;23;
70915;PMS5003;58557;50.982;-3.222;2022-12-07T07:54:35;27;26;
70915;PMS5003;58557;50.982;-3.222;2022-12-07T07:57:00;25;25;
70915;PMS5003;58557;50.982;-3.222;2022-12-07T07:59:26;25;20;
70915;PMS5003;58557;50.982;-3.222;2022-12-07T08:01:51;22;19;
70915;PMS5003;58557;50.982;-3.222;2022-12-07T08:04:17;25;24;
70915;PMS5003;58557;50.982;-3.222;2022-12-07T08:06:42;24;21;
70915;PMS5003;58557;50.982;-3.222;2022-12-07T08:09:07;29;26;
70915;PMS5003;58557;50.982;-3.222;2022-12-07T08:11:33;34;29;
70915;PMS5003;58557;50.982;-3.222;2022-12-07T08:13:59;33;30;
70915;PMS5003;58557;50.982;-3.222;2022-12-07T08:16:24;24;21;
70915;PMS5003;58557;50.982;-3.222;2022-12-07T08:18:50;32;25;
70915;PMS5003;58557;50.982;-3.222;2022-12-07T08:21:15;39;33;
70915;PMS5003;58557;50.982;-3.222;2022-12-07T08:23:41;30;24;
70915;PMS5003;58557;50.982;-3.222;2022-12-07T08:26:07;34;29;
70915;PMS5003;58557;50.982;-3.222;2022-12-07T08:28:31;33;28;
70915;PMS5003;58557;50.982;-3.222;2022-12-07T08:30:58;33;33;
70915;PMS5003;58557;50.982;-3.222;2022-12-07T08:33:22;37;30;
70915;PMS5003;58557;50.982;-3.222;2022-12-07T08:35:47;33;27;
70915;PMS5003;58557;50.982;-3.222;2022-12-07T08:38:13;43;36;
70915;PMS5003;58557;50.982;-3.222;2022-12-07T08:40:39;29;29;
70915;PMS5003;58557;50.982;-3.222;2022-12-07T08:43:04;42;38;
70915;PMS5003;58557;50.982;-3.222;2022-12-07T08:45:30;34;29;
70915;PMS5003;58557;50.982;-3.222;2022-12-07T08:47:56;46;37;
70915;PMS5003;58557;50.982;-3.222;2022-12-07T08:50:21;33;25;
70915;PMS5003;58557;50.982;-3.222;2022-12-07T08:52:48;30;28;
70915;PMS5003;58557;50.982;-3.222;2022-12-07T08:55:12;28;25;
70915;PMS5003;58557;50.982;-3.222;2022-12-07T08:57:38;30;30;
70915;PMS5003;58557;50.982;-3.222;2022-12-07T09:00:03;34;32;
70915;PMS5003;58557;50.982;-3.222;2022-12-07T09:02:28;48;43;
70915;PMS5003;58557;50.982;-3.222;2022-12-07T09:04:53;43;37;
70915;PMS5003;58557;50.982;-3.222;2022-12-07T09:07:19;34;29;
70915;PMS5003;58557;50.982;-3.222;2022-12-07T09:09:44;32;27;
70915;PMS5003;58557;50.982;-3.222;2022-12-07T09:12:09;39;30;
70915;PMS5003;58557;50.982;-3.222;2022-12-07T09:14:35;29;25;
70915;PMS5003;58557;50.982;-3.222;2022-12-07T09:17:04;25;25;
70915;PMS5003;58557;50.982;-3.222;2022-12-07T09:19:26;37;29;
70915;PMS5003;58557;50.982;-3.222;2022-12-07T09:21:52;32;30;
70915;PMS5003;58557;50.982;-3.222;2022-12-07T09:24:17;34;32;
70915;PMS5003;58557;50.982;-3.222;2022-12-07T09:26:43;32;27;
70915;PMS5003;58557;50.982;-3.222;2022-12-07T09:29:08;34;29;
70915;PMS5003;58557;50.982;-3.222;2022-12-07T09:31:35;33;27;
70915;PMS5003;58557;50.982;-3.222;2022-12-07T09:34:00;42;31;
70915;PMS5003;58557;50.982;-3.222;2022-12-07T09:36:25;32;32;
70915;PMS5003;58557;50.982;-3.222;2022-12-07T09:38:49;42;34;
70915;PMS5003;58557;50.982;-3.222;2022-12-07T09:41:15;39;33;
70915;PMS5003;58557;50.982;-3.222;2022-12-07T09:43:40;30;25;
70915;PMS5003;58557;50.982;-3.222;2022-12-07T09:46:05;41;34;
70915;PMS5003;58557;50.982;-3.222;2022-12-07T09:48:32;34;33;
70915;PMS5003;58557;50.982;-3.222;2022-12-07T09:50:57;33;26;
70915;PMS5003;58557;50.982;-3.222;2022-12-07T09:53:23;35;30;
70915;PMS5003;58557;50.982;-3.222;2022-12-07T09:55:48;24;22;
70915;PMS5003;58557;50.982;-3.222;2022-12-07T09:58:16;31;28;
70915;PMS5003;58557;50.982;-3.222;2022-12-07T10:00:39;29;29;
70915;PMS5003;58557;50.982;-3.222;2022-12-07T10:03:04;28;24;
70915;PMS5003;58557;50.982;-3.222;2022-12-07T10:05:30;29;27;
70915;PMS5003;58557;50.982;-3.222;2022-12-07T10:07:55;35;31;
70915;PMS5003;58557;50.982;-3.222;2022-12-07T10:10:26;34;32;
70915;PMS5003;58557;50.982;-3.222;2022-12-07T10:12:53;38;35;
70915;PMS5003;58557;50.982;-3.222;2022-12-07T10:15:11;38;31;
70915;PMS5003;58557;50.982;-3.222;2022-12-07T10:17:37;30;25;
70915;PMS5003;58557;50.982;-3.222;2022-12-07T10:20:11;33;31;
70915;PMS5003;58557;50.982;-3.222;2022-12-07T10:22:28;39;36;
70915;PMS5003;58557;50.982;-3.222;2022-12-07T10:24:54;38;32;
70915;PMS5003;58557;50.982;-3.222;2022-12-07T10:27:21;28;25;
70915;PMS5003;58557;50.982;-3.222;2022-12-07T10:29:47;36;32;
70915;PMS5003;58557;50.982;-3.222;2022-12-07T10:34:36;38;35;
70915;PMS5003;58557;50.982;-3.222;2022-12-07T10:37:11;38;36;
70915;PMS5003;58557;50.982;-3.222;2022-12-07T10:39:27;29;25;
70915;PMS5003;58557;50.982;-3.222;2022-12-07T10:41:53;30;24;
70915;PMS5003;58557;50.982;-3.222;2022-12-07T10:44:20;31;28;
70915;PMS5003;58557;50.982;-3.222;2022-12-07T10:46:50;34;32;
70915;PMS5003;58557;50.982;-3.222;2022-12-07T10:49:15;39;38;
70915;PMS5003;58557;50.982;-3.222;2022-12-07T10:51:36;30;23;
70915;PMS5003;58557;50.982;-3.222;2022-12-07T10:54:02;43;35;
70915;PMS5003;58557;50.982;-3.222;2022-12-07T10:56:30;38;32;
70915;PMS5003;58557;50.982;-3.222;2022-12-07T10:58:53;30;29;
70915;PMS5003;58557;50.982;-3.222;2022-12-07T11:01:18;35;31;
70915;PMS5003;58557;50.982;-3.222;2022-12-07T11:03:46;35;29;
70915;PMS5003;58557;50.982;-3.222;2022-12-07T11:06:10;26;23;
70915;PMS5003;58557;50.982;-3.222;2022-12-07T11:08:37;31;25;
70915;PMS5003;58557;50.982;-3.222;2022-12-07T11:10:57;28;24;
70915;PMS5003;58557;50.982;-3.222;2022-12-07T11:13:24;25;20;
70915;PMS5003;58557;50.982;-3.222;2022-12-07T11:15:51;31;27;
70915;PMS5003;58557;50.982;-3.222;2022-12-07T11:18:13;26;26;
70915;PMS5003;58557;50.982;-3.222;2022-12-07T11:20:41;24;22;
70915;PMS5003;58557;50.982;-3.222;2022-12-07T11:23:04;21;21;
70915;PMS5003;58557;50.982;-3.222;2022-12-07T11:25:30;21;18;
70915;PMS5003;58557;50.982;-3.222;2022-12-07T11:27:57;14;13;
70915;PMS5003;58557;50.982;-3.222;2022-12-07T11:30:19;12;12;
70915;PMS5003;58557;50.982;-3.222;2022-12-07T11:32:47;18;18;
70915;PMS5003;58557;50.982;-3.222;2022-12-07T11:35:11;13;13;
70915;PMS5003;58557;50.982;-3.222;2022-12-07T11:37:35;15;12;
70915;PMS5003;58557;50.982;-3.222;2022-12-07T11:40:01;10;10;
70915;PMS5003;58557;50.982;-3.222;2022-12-07T11:42:26;15;13;
70915;PMS5003;58557;50.982;-3.222;2022-12-07T11:44:52;12;9;
70915;PMS5003;58557;50.982;-3.222;2022-12-07T11:47:17;11;11;
70915;PMS5003;58557;50.982;-3.222;2022-12-07T11:49:43;17;12;
70915;PMS5003;58557;50.982;-3.222;2022-12-07T11:52:09;13;13;
70915;PMS5003;58557;50.982;-3.222;2022-12-07T11:54:34;22;18;
70915;PMS5003;58557;50.982;-3.222;2022-12-07T11:57:01;12;12;
70915;PMS5003;58557;50.982;-3.222;2022-12-07T11:59:25;11;11;
70915;PMS5003;58557;50.982;-3.222;2022-12-07T12:01:52;9;9;
70915;PMS5003;58557;50.982;-3.222;2022-12-07T12:04:18;8;8;
70915;PMS5003;58557;50.982;-3.222;2022-12-07T12:06:40;14;10;
70915;PMS5003;58557;50.982;-3.222;2022-12-07T12:09:04;10;8;
70915;PMS5003;58557;50.982;-3.222;2022-12-07T12:11:33;12;10;
70915;PMS5003;58557;50.982;-3.222;2022-12-07T12:14:01;9;7;
70915;PMS5003;58557;50.982;-3.222;2022-12-07T12:16:26;7;6;
70915;PMS5003;58557;50.982;-3.222;2022-12-07T12:18:48;7;6;
70915;PMS5003;58557;50.982;-3.222;2022-12-07T12:21:09;9;4;
70915;PMS5003;58557;50.982;-3.222;2022-12-07T12:23:35;9;7;
70915;PMS5003;58557;50.982;-3.222;2022-12-07T12:26:01;9;8;
70915;PMS5003;58557;50.982;-3.222;2022-12-07T12:28:26;8;8;
70915;PMS5003;58557;50.982;-3.222;2022-12-07T12:33:17;9;8;
70915;PMS5003;58557;50.982;-3.222;2022-12-07T12:35:41;15;8;
70915;PMS5003;58557;50.982;-3.222;2022-12-07T12:40:38;9;8;
70915;PMS5003;58557;50.982;-3.222;2022-12-07T12:42:56;16;14;
70915;PMS5003;58557;50.982;-3.222;2022-12-07T12:45:22;10;7;
70915;PMS5003;58557;50.982;-3.222;2022-12-07T12:47:52;9;8;
70915;PMS5003;58557;50.982;-3.222;2022-12-07T12:50:15;9;6;
70915;PMS5003;58557;50.982;-3.222;2022-12-07T12:57:29;9;8;
70915;PMS5003;58557;50.982;-3.222;2022-12-07T12:59:56;7;7;
70915;PMS5003;58557;50.982;-3.222;2022-12-07T13:02:20;8;8;
70915;PMS5003;58557;50.982;-3.222;2022-12-07T13:07:12;7;7;
70915;PMS5003;58557;50.982;-3.222;2022-12-07T13:09:33;7;7;
70915;PMS5003;58557;50.982;-3.222;2022-12-07T13:12:00;4;4;
70915;PMS5003;58557;50.982;-3.222;2022-12-07T13:16:48;9;7;
70915;PMS5003;58557;50.982;-3.222;2022-12-07T13:21:42;11;8;
70915;PMS5003;58557;50.982;-3.222;2022-12-07T13:24:06;8;8;
70915;PMS5003;58557;50.982;-3.222;2022-12-07T13:26:35;9;9;
70915;PMS5003;58557;50.982;-3.222;2022-12-07T13:31:26;14;13;
70915;PMS5003;58557;50.982;-3.222;2022-12-07T13:33:45;9;7;
70915;PMS5003;58557;50.982;-3.222;2022-12-07T13:36:12;11;11;
70915;PMS5003;58557;50.982;-3.222;2022-12-07T13:38:36;13;13;
70915;PMS5003;58557;50.982;-3.222;2022-12-07T13:41:02;13;11;
70915;PMS5003;58557;50.982;-3.222;2022-12-07T13:43:26;13;13;
70915;PMS5003;58557;50.982;-3.222;2022-12-07T13:45:55;12;12;
70915;PMS5003;58557;50.982;-3.222;2022-12-07T13:48:19;14;12;
70915;PMS5003;58557;50.982;-3.222;2022-12-07T13:50:42;9;9;
70915;PMS5003;58557;50.982;-3.222;2022-12-07T13:53:10;9;7;
70915;PMS5003;58557;50.982;-3.222;2022-12-07T13:55:32;9;9;
70915;PMS5003;58557;50.982;-3.222;2022-12-07T13:57:57;9;7;
70915;PMS5003;58557;50.982;-3.222;2022-12-07T14:00:23;9;7;
70915;PMS5003;58557;50.982;-3.222;2022-12-07T14:05:13;6;4;
70915;PMS5003;58557;50.982;-3.222;2022-12-07T14:10:04;4;4;
70915;PMS5003;58557;50.982;-3.222;2022-12-07T14:12:28;6;6;
70915;PMS5003;58557;50.982;-3.222;2022-12-07T14:14:53;6;3;
70915;PMS5003;58557;50.982;-3.222;2022-12-07T14:17:19;6;6;
70915;PMS5003;58557;50.982;-3.222;2022-12-07T14:19:44;4;4;
70915;PMS5003;58557;50.982;-3.222;2022-12-07T14:22:08;4;3;
70915;PMS5003;58557;50.982;-3.222;2022-12-07T14:26:59;8;7;
70915;PMS5003;58557;50.982;-3.222;2022-12-07T14:29:31;8;6;
70915;PMS5003;58557;50.982;-3.222;2022-12-07T14:31:49;7;4;
70915;PMS5003;58557;50.982;-3.222;2022-12-07T14:34:14;11;8;
70915;PMS5003;58557;50.982;-3.222;2022-12-07T14:36:40;9;4;
70915;PMS5003;58557;50.982;-3.222;2022-12-07T14:39:05;4;4;
70915;PMS5003;58557;50.982;-3.222;2022-12-07T14:41:30;7;6;
70915;PMS5003;58557;50.982;-3.222;2022-12-07T14:43:55;6;3;
70915;PMS5003;58557;50.982;-3.222;2022-12-07T14:46:20;7;6;
70915;PMS5003;58557;50.982;-3.222;2022-12-07T14:48:46;7;4;
70915;PMS5003;58557;50.982;-3.222;2022-12-07T14:51:11;6;6;
70915;PMS5003;58557;50.982;-3.222;2022-12-07T14:53:36;8;8;
70915;PMS5003;58557;50.982;-3.222;2022-12-07T14:56:01;8;7;
70915;PMS5003;58557;50.982;-3.222;2022-12-07T14:58:26;7;7;
70915;PMS5003;58557;50.982;-3.222;2022-12-07T15:00:52;8;8;
70915;PMS5003;58557;50.982;-3.222;2022-12-07T15:03:17;5;3;
70915;PMS5003;58557;50.982;-3.222;2022-12-07T15:05:43;7;5;
70915;PMS5003;58557;50.982;-3.222;2022-12-07T15:08:08;8;7;
70915;PMS5003;58557;50.982;-3.222;2022-12-07T15:10:33;7;7;
70915;PMS5003;58557;50.982;-3.222;2022-12-07T15:12:58;6;5;
70915;PMS5003;58557;50.982;-3.222;2022-12-07T15:15:23;8;6;
70915;PMS5003;58557;50.982;-3.222;2022-12-07T15:17:48;7;6;
70915;PMS5003;58557;50.982;-3.222;2022-12-07T15:20:14;10;5;
70915;PMS5003;58557;50.982;-3.222;2022-12-07T15:22:38;5;5;
70915;PMS5003;58557;50.982;-3.222;2022-12-07T15:25:04;5;5;
70915;PMS5003;58557;50.982;-3.222;2022-12-07T15:27:30;5;5;
70915;PMS5003;58557;50.982;-3.222;2022-12-07T15:29:54;10;5;
70915;PMS5003;58557;50.982;-3.222;2022-12-07T15:32:19;6;6;
70915;PMS5003;58557;50.982;-3.222;2022-12-07T15:34:44;13;12;
70915;PMS5003;58557;50.982;-3.222;2022-12-07T15:37:10;50;48;
70915;PMS5003;58557;50.982;-3.222;2022-12-07T15:39:36;60;49;
70915;PMS5003;58557;50.982;-3.222;2022-12-07T15:42:01;27;26;
70915;PMS5003;58557;50.982;-3.222;2022-12-07T15:44:26;5;5;
70915;PMS5003;58557;50.982;-3.222;2022-12-07T15:46:51;11;8;
70915;PMS5003;58557;50.982;-3.222;2022-12-07T15:49:18;10;6;
70915;PMS5003;58557;50.982;-3.222;2022-12-07T15:51:43;34;24;
70915;PMS5003;58557;50.982;-3.222;2022-12-07T15:54:08;11;11;
70915;PMS5003;58557;50.982;-3.222;2022-12-07T15:56:32;11;8;
70915;PMS5003;58557;50.982;-3.222;2022-12-07T15:58:58;18;13;
70915;PMS5003;58557;50.982;-3.222;2022-12-07T16:01:23;25;24;
70915;PMS5003;58557;50.982;-3.222;2022-12-07T16:03:48;14;14;
70915;PMS5003;58557;50.982;-3.222;2022-12-07T16:06:15;16;7;
70915;PMS5003;58557;50.982;-3.222;2022-12-07T16:08:41;11;8;
70915;PMS5003;58557;50.982;-3.222;2022-12-07T16:11:05;8;6;
70915;PMS5003;58557;50.982;-3.222;2022-12-07T16:13:30;7;6;
70915;PMS5003;58557;50.982;-3.222;2022-12-07T16:15:55;15;11;
70915;PMS5003;58557;50.982;-3.222;2022-12-07T16:18:21;12;12;
70915;PMS5003;58557;50.982;-3.222;2022-12-07T16:20:47;12;12;
70915;PMS5003;58557;50.982;-3.222;2022-12-07T16:23:11;11;10;
70915;PMS5003;58557;50.982;-3.222;2022-12-07T16:25:36;17;15;